sensor_id;sensor_type;location;lat;lon;timestamp;P1;P2;P0
32503;PMS5003;18953;45.930;13.640;2023-05-07T00:00:40;20;19;
32503;PMS5003;18953;45.930;13.640;2023-05-07T00:05:57;21;21;
32503;PMS5003;18953;45.930;13.640;2023-05-07T00:11:13;24;21;
32503;PMS5003;18953;45.930;13.640;2023-05-07T00:16:29;19;18;
32503;PMS5003;18953;45.930;13.640;2023-05-07T00:21:46;21;21;
32503;PMS5003;18953;45.930;13.640;2023-05-07T00:27:02;21;20;
32503;PMS5003;18953;45.930;13.640;2023-05-07T00:32:18;25;22;
32503;PMS5003;18953;45.930;13.640;2023-05-07T00:37:35;21;20;
32503;PMS5003;18953;45.930;13.640;2023-05-07T00:42:51;19;19;
32503;PMS5003;18953;45.930;13.640;2023-05-07T00:48:07;22;21;
32503;PMS5003;18953;45.930;13.640;2023-05-07T00:53:24;20;19;
32503;PMS5003;18953;45.930;13.640;2023-05-07T00:58:40;22;18;
32503;PMS5003;18953;45.930;13.640;2023-05-07T01:03:56;18;16;
32503;PMS5003;18953;45.930;13.640;2023-05-07T01:09:13;22;20;
32503;PMS5003;18953;45.930;13.640;2023-05-07T01:14:29;18;17;
32503;PMS5003;18953;45.930;13.640;2023-05-07T01:19:46;19;19;
32503;PMS5003;18953;45.930;13.640;2023-05-07T01:25:02;20;18;
32503;PMS5003;18953;45.930;13.640;2023-05-07T01:30:18;21;18;
32503;PMS5003;18953;45.930;13.640;2023-05-07T01:35:36;18;18;
32503;PMS5003;18953;45.930;13.640;2023-05-07T01:40:51;17;16;
32503;PMS5003;18953;45.930;13.640;2023-05-07T01:46:07;21;17;
32503;PMS5003;18953;45.930;13.640;2023-05-07T01:51:24;20;18;
32503;PMS5003;18953;45.930;13.640;2023-05-07T01:56:40;17;15;
32503;PMS5003;18953;45.930;13.640;2023-05-07T02:01:57;20;18;
32503;PMS5003;18953;45.930;13.640;2023-05-07T02:07:13;17;16;
32503;PMS5003;18953;45.930;13.640;2023-05-07T02:12:30;20;18;
32503;PMS5003;18953;45.930;13.640;2023-05-07T02:18:02;17;17;
32503;PMS5003;18953;45.930;13.640;2023-05-07T02:23:02;18;16;
32503;PMS5003;18953;45.930;13.640;2023-05-07T02:28:19;18;17;
32503;PMS5003;18953;45.930;13.640;2023-05-07T02:33:35;15;15;
32503;PMS5003;18953;45.930;13.640;2023-05-07T02:38:52;18;16;
32503;PMS5003;18953;45.930;13.640;2023-05-07T02:44:08;16;15;
32503;PMS5003;18953;45.930;13.640;2023-05-07T02:49:25;19;17;
32503;PMS5003;18953;45.930;13.640;2023-05-07T02:54:41;18;18;
32503;PMS5003;18953;45.930;13.640;2023-05-07T02:59:57;16;16;
32503;PMS5003;18953;45.930;13.640;2023-05-07T03:05:14;16;16;
32503;PMS5003;18953;45.930;13.640;2023-05-07T03:10:30;18;18;
32503;PMS5003;18953;45.930;13.640;2023-05-07T03:15:47;19;17;
32503;PMS5003;18953;45.930;13.640;2023-05-07T03:21:03;17;16;
32503;PMS5003;18953;45.930;13.640;2023-05-07T03:26:19;16;14;
32503;PMS5003;18953;45.930;13.640;2023-05-07T03:31:36;18;16;
32503;PMS5003;18953;45.930;13.640;2023-05-07T03:36:52;22;18;
32503;PMS5003;18953;45.930;13.640;2023-05-07T03:42:08;18;16;
32503;PMS5003;18953;45.930;13.640;2023-05-07T03:47:25;35;31;
32503;PMS5003;18953;45.930;13.640;2023-05-07T03:52:41;35;28;
32503;PMS5003;18953;45.930;13.640;2023-05-07T03:57:58;28;27;
32503;PMS5003;18953;45.930;13.640;2023-05-07T04:03:14;27;24;
32503;PMS5003;18953;45.930;13.640;2023-05-07T04:08:30;22;21;
32503;PMS5003;18953;45.930;13.640;2023-05-07T04:13:47;22;20;
32503;PMS5003;18953;45.930;13.640;2023-05-07T04:19:03;18;17;
32503;PMS5003;18953;45.930;13.640;2023-05-07T04:24:20;20;18;
32503;PMS5003;18953;45.930;13.640;2023-05-07T04:29:36;19;18;
32503;PMS5003;18953;45.930;13.640;2023-05-07T04:34:52;21;17;
32503;PMS5003;18953;45.930;13.640;2023-05-07T04:40:09;16;15;
32503;PMS5003;18953;45.930;13.640;2023-05-07T04:45:25;13;13;
32503;PMS5003;18953;45.930;13.640;2023-05-07T04:50:42;16;14;
32503;PMS5003;18953;45.930;13.640;2023-05-07T04:55:58;15;15;
32503;PMS5003;18953;45.930;13.640;2023-05-07T05:01:15;21;19;
32503;PMS5003;18953;45.930;13.640;2023-05-07T05:06:31;24;22;
32503;PMS5003;18953;45.930;13.640;2023-05-07T05:11:47;20;19;
32503;PMS5003;18953;45.930;13.640;2023-05-07T05:17:04;18;14;
32503;PMS5003;18953;45.930;13.640;2023-05-07T05:22:20;14;14;
32503;PMS5003;18953;45.930;13.640;2023-05-07T05:27:36;13;12;
32503;PMS5003;18953;45.930;13.640;2023-05-07T05:32:53;14;12;
32503;PMS5003;18953;45.930;13.640;2023-05-07T05:38:09;22;21;
32503;PMS5003;18953;45.930;13.640;2023-05-07T05:43:26;15;13;
32503;PMS5003;18953;45.930;13.640;2023-05-07T05:48:42;19;17;
32503;PMS5003;18953;45.930;13.640;2023-05-07T05:53:58;21;20;
32503;PMS5003;18953;45.930;13.640;2023-05-07T05:59:15;27;25;
32503;PMS5003;18953;45.930;13.640;2023-05-07T06:04:32;37;33;
32503;PMS5003;18953;45.930;13.640;2023-05-07T06:09:49;54;45;
32503;PMS5003;18953;45.930;13.640;2023-05-07T06:15:06;51;42;
32503;PMS5003;18953;45.930;13.640;2023-05-07T06:20:22;34;32;
32503;PMS5003;18953;45.930;13.640;2023-05-07T06:25:39;31;27;
32503;PMS5003;18953;45.930;13.640;2023-05-07T06:30:55;25;24;
32503;PMS5003;18953;45.930;13.640;2023-05-07T06:36:11;35;28;
32503;PMS5003;18953;45.930;13.640;2023-05-07T06:41:27;29;28;
32503;PMS5003;18953;45.930;13.640;2023-05-07T06:46:44;29;28;
32503;PMS5003;18953;45.930;13.640;2023-05-07T06:52:00;23;22;
32503;PMS5003;18953;45.930;13.640;2023-05-07T06:57:17;20;19;
32503;PMS5003;18953;45.930;13.640;2023-05-07T07:02:33;13;12;
32503;PMS5003;18953;45.930;13.640;2023-05-07T07:07:49;14;13;
32503;PMS5003;18953;45.930;13.640;2023-05-07T07:13:06;15;14;
32503;PMS5003;18953;45.930;13.640;2023-05-07T07:18:22;12;12;
32503;PMS5003;18953;45.930;13.640;2023-05-07T07:23:38;10;10;
32503;PMS5003;18953;45.930;13.640;2023-05-07T07:28:55;12;10;
32503;PMS5003;18953;45.930;13.640;2023-05-07T07:34:11;13;11;
32503;PMS5003;18953;45.930;13.640;2023-05-07T07:39:27;12;12;
32503;PMS5003;18953;45.930;13.640;2023-05-07T07:44:44;14;14;
32503;PMS5003;18953;45.930;13.640;2023-05-07T07:50:00;13;12;
32503;PMS5003;18953;45.930;13.640;2023-05-07T07:55:19;14;14;
32503;PMS5003;18953;45.930;13.640;2023-05-07T08:00:33;17;17;
32503;PMS5003;18953;45.930;13.640;2023-05-07T08:05:49;22;19;
32503;PMS5003;18953;45.930;13.640;2023-05-07T08:11:06;26;25;
32503;PMS5003;18953;45.930;13.640;2023-05-07T08:16:22;25;23;
32503;PMS5003;18953;45.930;13.640;2023-05-07T08:21:39;18;18;
32503;PMS5003;18953;45.930;13.640;2023-05-07T08:26:55;18;16;
32503;PMS5003;18953;45.930;13.640;2023-05-07T08:32:11;12;12;
32503;PMS5003;18953;45.930;13.640;2023-05-07T08:37:27;20;17;
32503;PMS5003;18953;45.930;13.640;2023-05-07T08:42:44;14;13;
32503;PMS5003;18953;45.930;13.640;2023-05-07T08:48:02;12;11;
32503;PMS5003;18953;45.930;13.640;2023-05-07T08:53:16;13;13;
32503;PMS5003;18953;45.930;13.640;2023-05-07T08:58:32;13;12;
32503;PMS5003;18953;45.930;13.640;2023-05-07T09:03:50;13;13;
32503;PMS5003;18953;45.930;13.640;2023-05-07T09:09:05;10;10;
32503;PMS5003;18953;45.930;13.640;2023-05-07T09:14:21;9;8;
32503;PMS5003;18953;45.930;13.640;2023-05-07T09:19:38;10;10;
32503;PMS5003;18953;45.930;13.640;2023-05-07T09:24:54;11;9;
32503;PMS5003;18953;45.930;13.640;2023-05-07T09:30:11;8;8;
32503;PMS5003;18953;45.930;13.640;2023-05-07T09:35:28;8;7;
32503;PMS5003;18953;45.930;13.640;2023-05-07T09:40:43;9;9;
32503;PMS5003;18953;45.930;13.640;2023-05-07T09:46:01;9;9;
32503;PMS5003;18953;45.930;13.640;2023-05-07T09:51:18;8;8;
32503;PMS5003;18953;45.930;13.640;2023-05-07T09:56:32;8;7;
32503;PMS5003;18953;45.930;13.640;2023-05-07T10:01:49;9;8;
32503;PMS5003;18953;45.930;13.640;2023-05-07T10:07:05;7;6;
32503;PMS5003;18953;45.930;13.640;2023-05-07T10:12:21;7;6;
32503;PMS5003;18953;45.930;13.640;2023-05-07T10:17:38;6;5;
32503;PMS5003;18953;45.930;13.640;2023-05-07T10:22:54;6;6;
32503;PMS5003;18953;45.930;13.640;2023-05-07T10:28:10;6;6;
32503;PMS5003;18953;45.930;13.640;2023-05-07T10:33:27;5;5;
32503;PMS5003;18953;45.930;13.640;2023-05-07T10:38:42;7;6;
32503;PMS5003;18953;45.930;13.640;2023-05-07T10:43:59;4;4;
32503;PMS5003;18953;45.930;13.640;2023-05-07T10:49:15;6;6;
32503;PMS5003;18953;45.930;13.640;2023-05-07T10:54:31;4;4;
32503;PMS5003;18953;45.930;13.640;2023-05-07T10:59:47;5;5;
32503;PMS5003;18953;45.930;13.640;2023-05-07T11:05:19;4;4;
32503;PMS5003;18953;45.930;13.640;2023-05-07T11:10:20;6;6;
32503;PMS5003;18953;45.930;13.640;2023-05-07T11:15:38;5;5;
32503;PMS5003;18953;45.930;13.640;2023-05-07T11:20:53;6;4;
32503;PMS5003;18953;45.930;13.640;2023-05-07T11:26:09;6;5;
32503;PMS5003;18953;45.930;13.640;2023-05-07T11:31:25;4;4;
32503;PMS5003;18953;45.930;13.640;2023-05-07T11:36:42;4;4;
32503;PMS5003;18953;45.930;13.640;2023-05-07T11:41:58;5;5;
32503;PMS5003;18953;45.930;13.640;2023-05-07T11:47:16;6;6;
32503;PMS5003;18953;45.930;13.640;2023-05-07T11:52:30;4;4;
32503;PMS5003;18953;45.930;13.640;2023-05-07T11:57:46;4;4;
32503;PMS5003;18953;45.930;13.640;2023-05-07T12:03:03;5;4;
32503;PMS5003;18953;45.930;13.640;2023-05-07T12:08:19;5;4;
32503;PMS5003;18953;45.930;13.640;2023-05-07T12:13:35;3;3;
32503;PMS5003;18953;45.930;13.640;2023-05-07T12:18:51;7;6;
32503;PMS5003;18953;45.930;13.640;2023-05-07T12:24:07;6;6;
32503;PMS5003;18953;45.930;13.640;2023-05-07T12:29:24;6;5;
32503;PMS5003;18953;45.930;13.640;2023-05-07T12:34:40;6;6;
32503;PMS5003;18953;45.930;13.640;2023-05-07T12:40:04;4;4;
32503;PMS5003;18953;45.930;13.640;2023-05-07T12:45:15;4;4;
32503;PMS5003;18953;45.930;13.640;2023-05-07T12:50:30;6;6;
32503;PMS5003;18953;45.930;13.640;2023-05-07T12:55:45;6;6;
32503;PMS5003;18953;45.930;13.640;2023-05-07T13:01:03;7;7;
32503;PMS5003;18953;45.930;13.640;2023-05-07T13:06:18;7;6;
32503;PMS5003;18953;45.930;13.640;2023-05-07T13:11:34;7;6;
32503;PMS5003;18953;45.930;13.640;2023-05-07T13:16:50;4;4;
32503;PMS5003;18953;45.930;13.640;2023-05-07T13:22:06;7;7;
32503;PMS5003;18953;45.930;13.640;2023-05-07T13:27:23;7;7;
32503;PMS5003;18953;45.930;13.640;2023-05-07T13:32:39;11;11;
32503;PMS5003;18953;45.930;13.640;2023-05-07T13:37:55;8;8;
32503;PMS5003;18953;45.930;13.640;2023-05-07T13:43:12;12;10;
32503;PMS5003;18953;45.930;13.640;2023-05-07T13:48:28;14;13;
32503;PMS5003;18953;45.930;13.640;2023-05-07T13:53:44;12;12;
32503;PMS5003;18953;45.930;13.640;2023-05-07T13:59:01;14;14;
32503;PMS5003;18953;45.930;13.640;2023-05-07T14:04:17;13;13;
32503;PMS5003;18953;45.930;13.640;2023-05-07T14:09:33;12;12;
32503;PMS5003;18953;45.930;13.640;2023-05-07T14:14:50;11;11;
32503;PMS5003;18953;45.930;13.640;2023-05-07T14:20:07;13;12;
32503;PMS5003;18953;45.930;13.640;2023-05-07T14:25:22;12;12;
32503;PMS5003;18953;45.930;13.640;2023-05-07T14:30:39;13;11;
32503;PMS5003;18953;45.930;13.640;2023-05-07T14:35:55;9;8;
32503;PMS5003;18953;45.930;13.640;2023-05-07T14:41:11;8;7;
32503;PMS5003;18953;45.930;13.640;2023-05-07T14:46:28;9;7;
32503;PMS5003;18953;45.930;13.640;2023-05-07T14:51:44;8;8;
32503;PMS5003;18953;45.930;13.640;2023-05-07T14:57:00;10;9;
32503;PMS5003;18953;45.930;13.640;2023-05-07T15:02:17;9;8;
32503;PMS5003;18953;45.930;13.640;2023-05-07T15:07:33;10;8;
32503;PMS5003;18953;45.930;13.640;2023-05-07T15:12:49;11;10;
32503;PMS5003;18953;45.930;13.640;2023-05-07T15:18:06;9;9;
32503;PMS5003;18953;45.930;13.640;2023-05-07T15:23:22;10;9;
32503;PMS5003;18953;45.930;13.640;2023-05-07T15:28:38;10;10;
32503;PMS5003;18953;45.930;13.640;2023-05-07T15:33:55;11;11;
32503;PMS5003;18953;45.930;13.640;2023-05-07T15:39:11;10;10;
32503;PMS5003;18953;45.930;13.640;2023-05-07T15:44:27;11;10;
32503;PMS5003;18953;45.930;13.640;2023-05-07T15:49:44;12;12;
32503;PMS5003;18953;45.930;13.640;2023-05-07T15:55:00;11;10;
32503;PMS5003;18953;45.930;13.640;2023-05-07T16:00:16;11;11;
32503;PMS5003;18953;45.930;13.640;2023-05-07T16:05:33;11;10;
32503;PMS5003;18953;45.930;13.640;2023-05-07T16:10:49;14;12;
32503;PMS5003;18953;45.930;13.640;2023-05-07T16:16:05;12;11;
32503;PMS5003;18953;45.930;13.640;2023-05-07T16:21:22;14;12;
32503;PMS5003;18953;45.930;13.640;2023-05-07T16:26:38;12;12;
32503;PMS5003;18953;45.930;13.640;2023-05-07T16:31:56;11;11;
32503;PMS5003;18953;45.930;13.640;2023-05-07T16:37:11;12;12;
32503;PMS5003;18953;45.930;13.640;2023-05-07T16:42:27;12;11;
32503;PMS5003;18953;45.930;13.640;2023-05-07T16:47:43;11;10;
32503;PMS5003;18953;45.930;13.640;2023-05-07T16:53:00;11;10;
32503;PMS5003;18953;45.930;13.640;2023-05-07T16:58:16;10;10;
32503;PMS5003;18953;45.930;13.640;2023-05-07T17:03:32;10;10;
32503;PMS5003;18953;45.930;13.640;2023-05-07T17:08:49;11;11;
32503;PMS5003;18953;45.930;13.640;2023-05-07T17:14:05;11;11;
32503;PMS5003;18953;45.930;13.640;2023-05-07T17:19:21;10;10;
32503;PMS5003;18953;45.930;13.640;2023-05-07T17:24:38;12;12;
32503;PMS5003;18953;45.930;13.640;2023-05-07T17:29:54;12;12;
32503;PMS5003;18953;45.930;13.640;2023-05-07T17:35:10;14;13;
32503;PMS5003;18953;45.930;13.640;2023-05-07T17:40:27;16;13;
32503;PMS5003;18953;45.930;13.640;2023-05-07T17:45:43;14;13;
32503;PMS5003;18953;45.930;13.640;2023-05-07T17:51:00;14;13;
32503;PMS5003;18953;45.930;13.640;2023-05-07T17:56:16;16;14;
32503;PMS5003;18953;45.930;13.640;2023-05-07T18:01:33;14;14;
32503;PMS5003;18953;45.930;13.640;2023-05-07T18:06:49;21;19;
32503;PMS5003;18953;45.930;13.640;2023-05-07T18:12:05;20;19;
32503;PMS5003;18953;45.930;13.640;2023-05-07T18:17:21;21;18;
32503;PMS5003;18953;45.930;13.640;2023-05-07T18:22:38;15;14;
32503;PMS5003;18953;45.930;13.640;2023-05-07T18:27:55;16;15;
32503;PMS5003;18953;45.930;13.640;2023-05-07T18:33:12;14;13;
32503;PMS5003;18953;45.930;13.640;2023-05-07T18:38:28;35;31;
32503;PMS5003;18953;45.930;13.640;2023-05-07T18:43:44;30;27;
32503;PMS5003;18953;45.930;13.640;2023-05-07T18:49:01;20;18;
32503;PMS5003;18953;45.930;13.640;2023-05-07T18:54:17;17;15;
32503;PMS5003;18953;45.930;13.640;2023-05-07T18:59:33;20;20;
32503;PMS5003;18953;45.930;13.640;2023-05-07T19:04:50;16;15;
32503;PMS5003;18953;45.930;13.640;2023-05-07T19:10:07;21;19;
32503;PMS5003;18953;45.930;13.640;2023-05-07T19:15:23;15;14;
32503;PMS5003;18953;45.930;13.640;2023-05-07T19:20:39;18;17;
32503;PMS5003;18953;45.930;13.640;2023-05-07T19:25:56;20;20;
32503;PMS5003;18953;45.930;13.640;2023-05-07T19:31:16;17;16;
32503;PMS5003;18953;45.930;13.640;2023-05-07T19:36:29;17;15;
32503;PMS5003;18953;45.930;13.640;2023-05-07T19:41:45;21;18;
32503;PMS5003;18953;45.930;13.640;2023-05-07T19:47:02;17;17;
32503;PMS5003;18953;45.930;13.640;2023-05-07T19:52:18;17;16;
32503;PMS5003;18953;45.930;13.640;2023-05-07T19:57:34;17;16;
32503;PMS5003;18953;45.930;13.640;2023-05-07T20:02:51;17;17;
32503;PMS5003;18953;45.930;13.640;2023-05-07T20:08:08;15;15;
32503;PMS5003;18953;45.930;13.640;2023-05-07T20:13:24;15;14;
32503;PMS5003;18953;45.930;13.640;2023-05-07T20:18:40;20;17;
32503;PMS5003;18953;45.930;13.640;2023-05-07T20:23:56;16;16;
32503;PMS5003;18953;45.930;13.640;2023-05-07T20:29:13;15;14;
32503;PMS5003;18953;45.930;13.640;2023-05-07T20:34:29;20;19;
32503;PMS5003;18953;45.930;13.640;2023-05-07T20:39:45;18;18;
32503;PMS5003;18953;45.930;13.640;2023-05-07T20:45:02;21;20;
32503;PMS5003;18953;45.930;13.640;2023-05-07T20:50:20;21;19;
32503;PMS5003;18953;45.930;13.640;2023-05-07T20:55:35;19;19;
32503;PMS5003;18953;45.930;13.640;2023-05-07T21:00:51;18;18;
32503;PMS5003;18953;45.930;13.640;2023-05-07T21:06:07;19;18;
32503;PMS5003;18953;45.930;13.640;2023-05-07T21:11:24;20;19;
32503;PMS5003;18953;45.930;13.640;2023-05-07T21:16:40;21;20;
32503;PMS5003;18953;45.930;13.640;2023-05-07T21:21:56;19;16;
32503;PMS5003;18953;45.930;13.640;2023-05-07T21:27:13;17;17;
32503;PMS5003;18953;45.930;13.640;2023-05-07T21:32:29;24;20;
32503;PMS5003;18953;45.930;13.640;2023-05-07T21:37:45;17;16;
32503;PMS5003;18953;45.930;13.640;2023-05-07T21:43:02;17;17;
32503;PMS5003;18953;45.930;13.640;2023-05-07T21:48:18;17;17;
32503;PMS5003;18953;45.930;13.640;2023-05-07T21:53:35;20;18;
32503;PMS5003;18953;45.930;13.640;2023-05-07T21:58:51;18;18;
32503;PMS5003;18953;45.930;13.640;2023-05-07T22:04:07;17;16;
32503;PMS5003;18953;45.930;13.640;2023-05-07T22:09:24;17;16;
32503;PMS5003;18953;45.930;13.640;2023-05-07T22:14:40;14;14;
32503;PMS5003;18953;45.930;13.640;2023-05-07T22:19:56;17;16;
32503;PMS5003;18953;45.930;13.640;2023-05-07T22:25:13;19;18;
32503;PMS5003;18953;45.930;13.640;2023-05-07T22:30:29;17;15;
32503;PMS5003;18953;45.930;13.640;2023-05-07T22:35:45;16;15;
32503;PMS5003;18953;45.930;13.640;2023-05-07T22:41:02;17;15;
32503;PMS5003;18953;45.930;13.640;2023-05-07T22:46:18;17;17;
32503;PMS5003;18953;45.930;13.640;2023-05-07T22:51:35;19;17;
32503;PMS5003;18953;45.930;13.640;2023-05-07T22:56:51;18;18;
32503;PMS5003;18953;45.930;13.640;2023-05-07T23:02:07;17;17;
32503;PMS5003;18953;45.930;13.640;2023-05-07T23:07:24;20;18;
32503;PMS5003;18953;45.930;13.640;2023-05-07T23:12:40;23;23;
32503;PMS5003;18953;45.930;13.640;2023-05-07T23:17:57;21;19;
32503;PMS5003;18953;45.930;13.640;2023-05-07T23:23:13;20;19;
32503;PMS5003;18953;45.930;13.640;2023-05-07T23:28:29;17;16;
32503;PMS5003;18953;45.930;13.640;2023-05-07T23:33:46;20;17;
32503;PMS5003;18953;45.930;13.640;2023-05-07T23:39:02;20;18;
32503;PMS5003;18953;45.930;13.640;2023-05-07T23:44:18;18;18;
32503;PMS5003;18953;45.930;13.640;2023-05-07T23:49:35;19;17;
32503;PMS5003;18953;45.930;13.640;2023-05-07T23:54:51;18;17;
